createdAt,value
2018-07-01T00:01:21.305Z,93369.23
2018-07-01T00:03:50.116Z,93372.10
2018-07-01T00:06:18.886Z,93368.53
2018-07-01T00:08:48.162Z,93370.02
2018-07-01T00:11:17.229Z,93363.66
2018-07-01T00:13:46.095Z,93364.89
2018-07-01T00:16:15.071Z,93366.03
2018-07-01T00:18:43.937Z,93360.22
2018-07-01T00:21:12.728Z,93364.83
2018-07-01T00:23:41.514Z,93365.61
2018-07-01T00:26:10.483Z,93370.35
2018-07-01T00:28:39.315Z,93376.71
2018-07-01T00:31:08.116Z,93379.33
2018-07-01T00:33:37.069Z,93379.31
2018-07-01T00:36:05.892Z,93375.83
2018-07-01T00:38:34.734Z,93376.97
2018-07-01T00:41:03.624Z,93368.91
2018-07-01T00:43:32.401Z,93368.59
2018-07-01T00:46:01.181Z,93375.56
2018-07-01T00:48:30.336Z,93377.34
2018-07-01T00:50:59.115Z,93378.86
2018-07-01T00:53:27.922Z,93378.78
2018-07-01T00:55:56.936Z,93376.85
2018-07-01T00:58:25.680Z,93376.28
2018-07-01T01:00:54.463Z,93371.77
2018-07-01T01:03:23.430Z,93386.44
2018-07-01T01:05:52.181Z,93389.47
2018-07-01T01:08:20.964Z,93392.22
2018-07-01T01:10:49.790Z,93395.58
2018-07-01T01:13:18.628Z,93393.41
2018-07-01T01:15:47.427Z,93393.16
2018-07-01T01:18:16.242Z,93396.52
2018-07-01T01:20:45.022Z,93395.45
2018-07-01T01:23:15.423Z,93403.73
2018-07-01T01:25:44.221Z,93410.29
2018-07-01T01:28:13.013Z,93416.02
2018-07-01T01:30:41.767Z,93418.05
2018-07-01T01:33:10.622Z,93422.16
2018-07-01T01:35:39.494Z,93422.91
2018-07-01T01:38:08.495Z,93427.12
2018-07-01T01:40:41.958Z,93436.18
2018-07-01T01:43:16.350Z,93439.28
2018-07-01T01:45:49.271Z,93448.42
2018-07-01T01:48:26.057Z,93460.66
2018-07-01T01:51:13.254Z,93456.28
2018-07-01T01:53:52.586Z,93461.78
2018-07-01T01:56:27.956Z,93463.20
2018-07-01T01:59:30.788Z,93461.34
2018-07-01T02:02:24.054Z,93472.80
2018-07-01T02:04:57.127Z,93479.33
2018-07-01T02:07:32.256Z,93477.36
2018-07-01T02:10:01.079Z,93494.25
2018-07-01T02:12:29.923Z,93497.78
2018-07-01T02:15:01.606Z,93505.98
2018-07-01T02:17:33.971Z,93500.48
2018-07-01T02:20:03.102Z,93502.27
2018-07-01T02:24:39.834Z,93503.40
2018-07-01T02:27:10.306Z,93502.23
2018-07-01T02:29:39.143Z,93505.05
2018-07-01T02:32:08.005Z,93513.76
2018-07-01T02:34:36.774Z,93506.91
2018-07-01T02:37:05.684Z,93508.93
2018-07-01T02:39:34.521Z,93513.45
2018-07-01T02:42:03.497Z,93509.33
2018-07-01T02:44:32.308Z,93514.67
2018-07-01T02:47:01.073Z,93518.55
2018-07-01T02:49:31.717Z,93520.02
2018-07-01T02:52:00.486Z,93526.72
2018-07-01T02:54:29.815Z,93534.49
2018-07-01T02:56:58.952Z,93541.54
2018-07-01T02:59:27.728Z,93545.16
2018-07-01T03:01:56.507Z,93547.15
2018-07-01T03:04:25.450Z,93541.15
2018-07-01T03:06:54.218Z,93551.77
2018-07-01T03:09:23.009Z,93551.55
2018-07-01T03:11:51.810Z,93545.00
2018-07-01T03:14:20.562Z,93554.78
2018-07-01T03:16:49.343Z,93551.33
2018-07-01T03:19:18.239Z,93552.66
2018-07-01T03:21:47.015Z,93550.14
2018-07-01T03:24:15.801Z,93551.36
2018-07-01T03:26:44.635Z,93554.20
2018-07-01T03:29:13.566Z,93546.83
2018-07-01T03:31:42.335Z,93551.43
2018-07-01T03:34:12.442Z,93546.95
2018-07-01T03:36:41.265Z,93552.42
2018-07-01T03:39:10.593Z,93542.12
2018-07-01T03:41:39.608Z,93544.88
2018-07-01T03:44:08.399Z,93550.31
2018-07-01T03:46:37.834Z,93543.91
2018-07-01T03:49:07.225Z,93555.27
2018-07-01T03:51:36.036Z,93558.44
2018-07-01T03:54:04.953Z,93563.23
2018-07-01T03:56:34.623Z,93555.38
2018-07-01T03:59:03.441Z,93561.45
2018-07-01T04:01:32.229Z,93564.83
2018-07-01T04:04:01.058Z,93559.23
2018-07-01T04:06:29.914Z,93558.77
2018-07-01T04:08:58.704Z,93559.14
2018-07-01T04:11:27.523Z,93560.09
2018-07-01T04:13:56.322Z,93565.61
2018-07-01T04:16:25.140Z,93561.55
2018-07-01T04:18:53.969Z,93565.47
2018-07-01T04:21:22.745Z,93556.98
2018-07-01T04:23:51.548Z,93563.42
2018-07-01T04:26:20.335Z,93554.87
2018-07-01T04:28:49.089Z,93560.69
2018-07-01T04:31:17.914Z,93558.97
2018-07-01T04:33:46.712Z,93559.27
2018-07-01T04:36:15.503Z,93563.78
2018-07-01T04:38:44.256Z,93563.87
2018-07-01T04:41:13.372Z,93564.52
2018-07-01T04:43:42.164Z,93577.73
2018-07-01T04:46:10.946Z,93587.16
2018-07-01T04:48:39.892Z,93583.33
2018-07-01T04:51:08.802Z,93592.44
2018-07-01T04:53:37.576Z,93592.08
2018-07-01T04:56:06.432Z,93598.65
2018-07-01T04:58:35.209Z,93600.97
2018-07-01T05:01:04.072Z,93592.06
2018-07-01T05:03:32.953Z,93604.77
2018-07-01T05:06:01.752Z,93608.10
2018-07-01T05:08:30.564Z,93606.37
2018-07-01T05:10:59.488Z,93608.05
2018-07-01T05:13:28.271Z,93608.48
2018-07-01T05:15:57.013Z,93613.06
2018-07-01T05:18:26.148Z,93624.59
2018-07-01T05:20:54.924Z,93618.24
2018-07-01T05:23:23.731Z,93624.77
2018-07-01T05:25:52.665Z,93623.16
2018-07-01T05:28:21.505Z,93629.00
2018-07-01T05:30:50.294Z,93639.77
2018-07-01T05:33:19.136Z,93637.44
2018-07-01T05:35:47.926Z,93647.91
2018-07-01T05:38:16.715Z,93647.22
2018-07-01T05:40:45.540Z,93658.13
2018-07-01T05:43:14.332Z,93657.33
2018-07-01T05:45:43.188Z,93658.38
2018-07-01T05:48:12.028Z,93656.03
2018-07-01T05:50:40.799Z,93669.56
2018-07-01T05:53:09.583Z,93669.81
2018-07-01T05:55:38.387Z,93666.42
2018-07-01T05:58:07.289Z,93663.92
2018-07-01T06:00:36.265Z,93668.25
2018-07-01T06:03:05.146Z,93662.22
2018-07-01T06:05:33.984Z,93662.39
2018-07-01T06:08:02.763Z,93662.56
2018-07-01T06:10:31.577Z,93659.61
2018-07-01T06:13:00.383Z,93658.59
2018-07-01T06:15:29.180Z,93666.76
2018-07-01T06:17:58.025Z,93665.86
2018-07-01T06:20:26.889Z,93670.38
2018-07-01T06:22:55.704Z,93671.22
2018-07-01T06:25:24.879Z,93677.86
2018-07-01T06:27:53.656Z,93683.05
2018-07-01T06:30:23.449Z,93672.73
2018-07-01T06:32:52.337Z,93674.97
2018-07-01T06:35:21.137Z,93675.59
2018-07-01T06:37:49.948Z,93681.70
2018-07-01T06:40:19.005Z,93675.17
2018-07-01T06:42:47.813Z,93675.45
2018-07-01T06:45:16.621Z,93682.91
2018-07-01T06:47:45.463Z,93689.39
2018-07-01T06:50:14.256Z,93695.48
2018-07-01T06:52:43.016Z,93688.68
2018-07-01T06:55:13.843Z,93695.41
2018-07-01T06:57:42.645Z,93687.20
2018-07-01T07:00:11.508Z,93689.68
2018-07-01T07:02:40.320Z,93687.42
2018-07-01T07:05:09.142Z,93693.55
2018-07-01T07:07:37.956Z,93681.40
2018-07-01T07:10:07.025Z,93673.86
2018-07-01T07:12:35.817Z,93673.67
2018-07-01T07:15:04.715Z,93677.93
2018-07-01T07:17:33.603Z,93676.58
2018-07-01T07:20:02.695Z,93687.14
2018-07-01T07:22:31.472Z,93689.74
2018-07-01T07:25:00.339Z,93693.13
2018-07-01T07:27:29.196Z,93691.08
2018-07-01T07:29:57.985Z,93690.88
2018-07-01T07:32:26.820Z,93694.15
2018-07-01T07:34:56.652Z,93691.97
2018-07-01T07:37:25.476Z,93686.52
2018-07-01T07:39:54.317Z,93700.33
2018-07-01T07:42:23.105Z,93696.03
2018-07-01T07:44:52.269Z,93685.86
2018-07-01T07:47:21.237Z,93690.06
2018-07-01T07:49:50.036Z,93693.82
2018-07-01T07:52:18.957Z,93696.09
2018-07-01T07:54:47.732Z,93689.52
2018-07-01T07:57:16.589Z,93693.09
2018-07-01T07:59:45.436Z,93692.59
2018-07-01T08:02:14.424Z,93689.91
2018-07-01T08:04:43.237Z,93691.11
2018-07-01T08:07:12.585Z,93696.94
2018-07-01T08:09:41.435Z,93687.70
2018-07-01T08:12:10.264Z,93693.81
2018-07-01T08:14:39.381Z,93696.95
2018-07-01T08:17:08.247Z,93686.07
2018-07-01T08:19:37.028Z,93692.53
2018-07-01T08:22:05.825Z,93685.08
2018-07-01T08:24:36.414Z,93701.17
2018-07-01T08:27:05.281Z,93698.36
2018-07-01T08:29:34.052Z,93696.63
2018-07-01T08:32:02.974Z,93701.66
2018-07-01T08:34:31.864Z,93700.05
2018-07-01T08:37:00.646Z,93697.48
2018-07-01T08:39:29.466Z,93701.47
2018-07-01T08:42:35.591Z,93698.12
2018-07-01T08:45:05.969Z,93696.45
2018-07-01T08:47:35.364Z,93704.42
2018-07-01T08:50:05.099Z,93693.64
2018-07-01T08:52:34.249Z,93698.17
2018-07-01T08:55:03.098Z,93699.02
2018-07-01T08:57:31.944Z,93690.73
2018-07-01T09:00:01.005Z,93697.27
2018-07-01T09:02:29.809Z,93697.37
2018-07-01T09:04:58.606Z,93691.53
2018-07-01T09:07:27.592Z,93700.02
2018-07-01T09:09:56.386Z,93698.58
2018-07-01T09:12:25.198Z,93686.37
2018-07-01T09:14:54.193Z,93691.16
2018-07-01T09:17:23.005Z,93688.67
2018-07-01T09:19:51.797Z,93704.45
2018-07-01T09:22:20.717Z,93705.42
2018-07-01T09:24:49.524Z,93699.96
2018-07-01T09:27:18.329Z,93696.52
2018-07-01T09:29:53.790Z,93695.58
2018-07-01T09:32:22.615Z,93698.08
2018-07-01T09:34:51.404Z,93696.35
2018-07-01T09:37:20.232Z,93693.59
2018-07-01T09:39:49.061Z,93695.14
2018-07-01T09:42:17.875Z,93687.40
2018-07-01T09:44:47.663Z,93694.05
2018-07-01T09:47:17.429Z,93693.55
2018-07-01T09:49:47.358Z,93693.62
2018-07-01T09:52:16.327Z,93701.44
2018-07-01T09:54:45.120Z,93702.40
2018-07-01T09:57:13.991Z,93694.55
2018-07-01T09:59:43.120Z,93696.94
2018-07-01T10:02:11.980Z,93695.15
2018-07-01T10:04:40.795Z,93692.27
2018-07-01T10:07:09.627Z,93691.41
2018-07-01T10:09:38.451Z,93692.09
2018-07-01T10:12:07.375Z,93682.14
2018-07-01T10:14:36.166Z,93685.38
2018-07-01T10:17:05.112Z,93692.44
2018-07-01T10:19:33.972Z,93685.53
2018-07-01T10:22:03.150Z,93678.46
2018-07-01T10:24:31.956Z,93678.66
2018-07-01T10:27:00.782Z,93683.66
2018-07-01T10:29:29.635Z,93677.03
2018-07-01T10:31:58.480Z,93683.44
2018-07-01T10:34:28.421Z,93688.29
2018-07-01T10:36:57.418Z,93685.09
2018-07-01T10:39:26.238Z,93694.15
2018-07-01T10:41:55.024Z,93689.03
2018-07-01T10:44:24.018Z,93696.13
2018-07-01T10:46:52.835Z,93702.49
2018-07-01T10:49:21.646Z,93691.52
2018-07-01T10:51:50.489Z,93692.44
2018-07-01T10:54:19.300Z,93686.05
2018-07-01T10:56:48.104Z,93686.05
2018-07-01T10:59:17.334Z,93675.27
2018-07-01T11:01:46.190Z,93681.70
2018-07-01T11:04:15.001Z,93684.06
2018-07-01T11:06:43.945Z,93686.89
2018-07-01T11:09:13.371Z,93682.39
2018-07-01T11:11:42.219Z,93687.17
2018-07-01T11:14:11.117Z,93689.70
2018-07-01T11:16:39.934Z,93692.71
2018-07-01T11:19:09.781Z,93697.97
2018-07-01T11:21:38.652Z,93695.31
2018-07-01T11:24:07.533Z,93695.59
2018-07-01T11:26:36.335Z,93692.50
2018-07-01T11:29:05.494Z,93688.64
2018-07-01T11:31:34.321Z,93697.02
2018-07-01T11:34:03.113Z,93694.50
2018-07-01T11:36:32.174Z,93690.83
2018-07-01T11:39:00.996Z,93692.42
2018-07-01T11:41:29.783Z,93688.75
2018-07-01T11:43:58.696Z,93686.44
2018-07-01T11:46:27.476Z,93694.27
2018-07-01T11:48:56.867Z,93681.41
2018-07-01T11:51:25.673Z,93687.44
2018-07-01T11:53:54.466Z,93692.02
2018-07-01T11:56:23.299Z,93688.15
2018-07-01T11:58:52.370Z,93700.25
2018-07-01T12:01:21.173Z,93697.28
2018-07-01T12:03:50.029Z,93697.02
2018-07-01T12:06:18.976Z,93688.23
2018-07-01T12:08:47.787Z,93692.36
2018-07-01T12:11:16.593Z,93698.61
2018-07-01T12:13:45.408Z,93690.56
2018-07-01T12:16:14.190Z,93696.69
2018-07-01T12:18:43.009Z,93685.20
2018-07-01T12:21:11.867Z,93680.11
2018-07-01T12:23:40.741Z,93674.56
2018-07-01T12:26:10.945Z,93673.73
2018-07-01T12:28:39.822Z,93672.73
2018-07-01T12:31:08.667Z,93673.48
2018-07-01T12:33:37.478Z,93674.81
2018-07-01T12:36:06.456Z,93673.77
2018-07-01T12:38:35.335Z,93682.28
2018-07-01T12:41:04.189Z,93674.50
2018-07-01T12:43:33.152Z,93671.19
2018-07-01T12:46:02.027Z,93665.91
2018-07-01T12:48:30.827Z,93665.38
2018-07-01T12:50:59.662Z,93669.14
2018-07-01T12:53:28.497Z,93667.33
2018-07-01T12:55:57.336Z,93660.48
2018-07-01T12:58:26.214Z,93664.07
2018-07-01T13:00:55.061Z,93667.37
2018-07-01T13:03:23.868Z,93674.07
2018-07-01T13:05:52.711Z,93678.66
2018-07-01T13:08:21.513Z,93679.31
2018-07-01T13:10:50.319Z,93679.17
2018-07-01T13:13:19.324Z,93689.73
2018-07-01T13:15:48.193Z,93682.08
2018-07-01T13:18:17.050Z,93683.33
2018-07-01T13:20:45.876Z,93681.97
2018-07-01T13:23:14.852Z,93680.21
2018-07-01T13:25:43.630Z,93682.91
2018-07-01T13:28:12.455Z,93686.56
2018-07-01T13:30:41.223Z,93693.69
2018-07-01T13:33:10.070Z,93689.35
2018-07-01T13:35:38.907Z,93689.17
2018-07-01T13:38:07.757Z,93691.16
2018-07-01T13:40:36.629Z,93685.73
2018-07-01T13:43:05.561Z,93691.83
2018-07-01T13:45:34.413Z,93689.24
2018-07-01T13:48:03.267Z,93697.92
2018-07-01T13:50:32.230Z,93702.83
2018-07-01T13:53:01.332Z,93702.52
2018-07-01T13:55:31.949Z,93706.88
2018-07-01T13:58:01.093Z,93709.31
2018-07-01T14:00:29.904Z,93710.61
2018-07-01T14:02:58.732Z,93706.66
2018-07-01T14:05:27.555Z,93711.45
2018-07-01T14:07:56.384Z,93711.88
2018-07-01T14:10:25.201Z,93710.70
2018-07-01T14:12:54.037Z,93711.81
2018-07-01T14:15:22.854Z,93716.82
2018-07-01T14:17:51.624Z,93717.20
2018-07-01T14:20:20.668Z,93722.33
2018-07-01T14:22:49.455Z,93723.15
2018-07-01T14:25:18.277Z,93725.19
2018-07-01T14:27:47.322Z,93729.09
2018-07-01T14:30:16.148Z,93728.97
2018-07-01T14:32:44.926Z,93729.28
2018-07-01T14:35:13.857Z,93728.97
2018-07-01T14:37:42.644Z,93726.78
2018-07-01T14:40:11.470Z,93727.00
2018-07-01T14:42:40.286Z,93721.81
2018-07-01T14:45:09.105Z,93717.46
2018-07-01T14:47:37.944Z,93711.41
2018-07-01T14:50:07.213Z,93712.94
2018-07-01T14:52:35.994Z,93715.86
2018-07-01T14:55:05.164Z,93715.86
2018-07-01T14:57:34.724Z,93708.83
2018-07-01T15:00:03.616Z,93704.23
2018-07-01T15:02:32.445Z,93706.53
2018-07-01T15:05:01.981Z,93705.25
2018-07-01T15:07:30.779Z,93696.27
2018-07-01T15:09:59.561Z,93693.20
2018-07-01T15:12:28.346Z,93697.45
2018-07-01T15:14:57.136Z,93694.00
2018-07-01T15:17:25.938Z,93701.84
2018-07-01T15:19:54.913Z,93690.91
2018-07-01T15:22:23.690Z,93694.96
2018-07-01T15:24:54.345Z,93690.03
2018-07-01T15:27:23.187Z,93684.65
2018-07-01T15:29:51.987Z,93679.09
2018-07-01T15:32:20.836Z,93680.31
2018-07-01T15:34:49.757Z,93677.59
2018-07-01T15:37:18.539Z,93676.58
2018-07-01T15:39:47.336Z,93683.66
2018-07-01T15:42:16.270Z,93680.42
2018-07-01T15:44:45.064Z,93686.52
2018-07-01T15:47:13.872Z,93691.01
2018-07-01T15:49:42.784Z,93691.56
2018-07-01T15:52:11.649Z,93697.45
2018-07-01T15:54:40.467Z,93700.30
2018-07-01T15:57:09.320Z,93703.19
2018-07-01T15:59:38.217Z,93698.39
2018-07-01T16:02:07.175Z,93701.31
2018-07-01T16:04:36.024Z,93695.02
2018-07-01T16:07:04.854Z,93699.86
2018-07-01T16:09:33.699Z,93696.67
2018-07-01T16:12:02.561Z,93695.77
2018-07-01T16:14:31.321Z,93695.02
2018-07-01T16:17:00.124Z,93699.03
2018-07-01T16:19:29.104Z,93702.88
2018-07-01T16:21:57.932Z,93707.34
2018-07-01T18:14:26.030Z,94576.83
2018-07-01T18:16:54.818Z,94578.36
2018-07-01T18:19:23.405Z,94583.15
2018-07-01T18:22:21.725Z,94583.61
2018-07-01T18:24:48.928Z,94581.05
2018-07-01T18:26:50.445Z,94584.77
2018-07-01T18:29:20.535Z,94590.22
2018-07-01T18:31:49.064Z,94597.70
2018-07-01T18:34:18.134Z,94612.83
2018-07-01T18:36:47.683Z,94625.38
2018-07-01T18:39:17.050Z,94634.75
2018-07-01T18:41:46.349Z,94634.49
2018-07-01T18:44:16.933Z,94600.44
2018-07-01T18:46:46.148Z,94654.26
2018-07-01T18:49:16.197Z,94655.01
2018-07-01T18:54:26.817Z,94671.77
2018-07-01T18:56:57.129Z,94678.30
2018-07-01T18:59:27.541Z,94674.87
2018-07-01T19:01:56.247Z,94679.28
2018-07-01T19:04:26.013Z,94669.57
2018-07-01T19:08:17.333Z,94655.09
2018-07-01T19:09:11.812Z,94649.38
2018-07-01T19:10:05.525Z,94651.01
2018-07-01T19:10:59.075Z,94654.20
2018-07-01T19:11:52.753Z,94644.83
2018-07-01T19:12:46.609Z,94643.78
2018-07-01T19:13:40.888Z,94642.06
2018-07-01T19:14:34.640Z,94644.51
2018-07-01T19:16:08.113Z,94638.23
2018-07-01T19:17:02.066Z,94645.55
2018-07-01T19:17:57.500Z,94644.45
2018-07-01T19:18:51.171Z,94652.83
2018-07-01T19:19:44.804Z,94652.44
2018-07-01T19:20:39.773Z,94656.19
2018-07-01T19:21:33.693Z,94635.63
2018-07-01T19:22:27.728Z,94649.88
2018-07-01T19:23:21.408Z,94650.70
2018-07-01T19:24:15.800Z,94653.42
2018-07-01T19:25:10.491Z,94661.38
2018-07-01T19:26:04.392Z,94661.84
2018-07-01T19:26:58.114Z,94660.48
2018-07-01T19:28:13.464Z,94666.14
2018-07-01T19:28:57.036Z,94669.05
2018-07-01T19:29:41.162Z,94678.36
2018-07-01T19:30:54.084Z,94687.08
2018-07-01T19:31:37.711Z,94689.29
2018-07-01T19:32:21.315Z,94691.29
2018-07-01T19:33:05.018Z,94699.29
2018-07-01T19:33:49.312Z,94703.50
2018-07-01T19:34:32.917Z,94704.05
2018-07-01T19:35:16.474Z,94703.13
2018-07-01T19:36:00.074Z,94707.53
2018-07-01T19:36:43.606Z,94705.09
2018-07-01T19:37:27.180Z,94701.54
2018-07-01T19:38:10.724Z,94699.54
2018-07-01T19:38:54.280Z,94705.38
2018-07-01T19:39:37.846Z,94694.61
2018-07-01T19:40:21.429Z,94707.92
2018-07-01T19:41:05.021Z,94705.16
2018-07-01T19:41:48.607Z,94704.98
2018-07-01T19:42:33.911Z,94703.70
2018-07-01T19:43:17.927Z,94696.77
2018-07-01T19:44:01.649Z,94697.15
2018-07-01T19:44:45.232Z,94697.22
2018-07-01T19:45:29.140Z,94693.50
2018-07-01T19:46:12.818Z,94691.77
2018-07-01T19:46:56.514Z,94685.47
2018-07-01T19:47:40.154Z,94682.12
2018-07-01T19:48:23.778Z,94676.19
2018-07-01T19:49:07.325Z,94673.42
2018-07-01T19:49:50.868Z,94677.62
2018-07-01T19:50:34.500Z,94666.14
2018-07-01T19:51:18.370Z,94669.08
2018-07-01T19:52:02.324Z,94669.08
2018-07-01T19:52:45.896Z,94666.52
2018-07-01T19:53:29.997Z,94661.48
2018-07-01T19:54:14.940Z,94661.59
2018-07-01T19:54:59.724Z,94665.42
2018-07-01T19:55:43.900Z,94672.63
2018-07-01T19:56:28.084Z,94666.70
2018-07-01T19:57:12.296Z,94663.22
2018-07-01T20:15:26.583Z,94670.42
2018-07-01T20:30:32.428Z,94687.92
2018-07-01T20:45:37.236Z,94683.38
2018-07-01T21:00:40.877Z,94677.17
2018-07-01T21:15:44.848Z,94663.87
2018-07-01T21:30:48.630Z,94675.13
2018-07-01T21:45:52.742Z,94675.89
2018-07-01T22:00:56.607Z,94681.50
2018-07-01T22:16:09.426Z,94691.45
2018-07-01T22:31:14.900Z,94727.98
2018-07-01T22:46:19.850Z,94686.20
2018-07-01T23:01:25.945Z,94712.19
2018-07-01T23:16:31.098Z,94825.36
2018-07-01T23:31:34.996Z,94798.95
2018-07-01T23:46:38.960Z,94758.12
